sensor_id;sensor_type;location;lat;lon;timestamp;temperature;humidity
59973;DHT22;55298;-36.624;-64.282;2022-09-16T00:02:10;21.50;27.40
59973;DHT22;55298;-36.624;-64.282;2022-09-16T00:04:40;21.50;27.40
59973;DHT22;55298;-36.624;-64.282;2022-09-16T00:07:10;21.50;27.60
59973;DHT22;55298;-36.624;-64.282;2022-09-16T00:09:41;21.50;27.70
59973;DHT22;55298;-36.624;-64.282;2022-09-16T00:12:08;21.40;27.90
59973;DHT22;55298;-36.624;-64.282;2022-09-16T00:15:01;21.40;28.00
59973;DHT22;55298;-36.624;-64.282;2022-09-16T00:17:30;21.30;28.20
59973;DHT22;55298;-36.624;-64.282;2022-09-16T00:20:00;21.30;28.20
59973;DHT22;55298;-36.624;-64.282;2022-09-16T00:22:29;21.30;28.30
59973;DHT22;55298;-36.624;-64.282;2022-09-16T00:24:56;21.20;28.40
59973;DHT22;55298;-36.624;-64.282;2022-09-16T00:27:24;21.20;28.50
59973;DHT22;55298;-36.624;-64.282;2022-09-16T00:29:53;21.20;28.50
59973;DHT22;55298;-36.624;-64.282;2022-09-16T00:32:21;21.10;28.60
59973;DHT22;55298;-36.624;-64.282;2022-09-16T00:34:53;21.10;28.70
59973;DHT22;55298;-36.624;-64.282;2022-09-16T00:37:26;21.10;28.80
59973;DHT22;55298;-36.624;-64.282;2022-09-16T00:40:14;21.10;28.90
59973;DHT22;55298;-36.624;-64.282;2022-09-16T00:42:45;21.00;29.10
59973;DHT22;55298;-36.624;-64.282;2022-09-16T00:45:16;20.90;29.20
59973;DHT22;55298;-36.624;-64.282;2022-09-16T00:47:53;20.90;29.30
59973;DHT22;55298;-36.624;-64.282;2022-09-16T00:50:40;20.90;29.40
59973;DHT22;55298;-36.624;-64.282;2022-09-16T00:53:16;20.80;29.50
59973;DHT22;55298;-36.624;-64.282;2022-09-16T00:55:45;20.70;29.60
59973;DHT22;55298;-36.624;-64.282;2022-09-16T00:58:42;20.60;29.80
59973;DHT22;55298;-36.624;-64.282;2022-09-16T01:01:11;20.50;30.00
59973;DHT22;55298;-36.624;-64.282;2022-09-16T01:03:47;20.40;30.20
59973;DHT22;55298;-36.624;-64.282;2022-09-16T01:06:16;20.40;30.30
59973;DHT22;55298;-36.624;-64.282;2022-09-16T01:08:45;20.30;30.60
59973;DHT22;55298;-36.624;-64.282;2022-09-16T01:11:17;20.20;30.80
59973;DHT22;55298;-36.624;-64.282;2022-09-16T01:13:46;20.10;30.90
59973;DHT22;55298;-36.624;-64.282;2022-09-16T01:16:24;20.10;31.10
59973;DHT22;55298;-36.624;-64.282;2022-09-16T01:19:31;20.10;31.30
59973;DHT22;55298;-36.624;-64.282;2022-09-16T01:22:09;20.10;31.30
59973;DHT22;55298;-36.624;-64.282;2022-09-16T01:24:51;20.00;31.40
59973;DHT22;55298;-36.624;-64.282;2022-09-16T01:27:49;20.00;31.70
59973;DHT22;55298;-36.624;-64.282;2022-09-16T01:30:34;19.90;31.80
59973;DHT22;55298;-36.624;-64.282;2022-09-16T01:33:28;19.80;31.90
59973;DHT22;55298;-36.624;-64.282;2022-09-16T01:39:06;19.80;32.30
59973;DHT22;55298;-36.624;-64.282;2022-09-16T01:44:45;19.70;32.40
59973;DHT22;55298;-36.624;-64.282;2022-09-16T01:47:29;19.60;32.50
59973;DHT22;55298;-36.624;-64.282;2022-09-16T01:50:14;19.60;32.70
59973;DHT22;55298;-36.624;-64.282;2022-09-16T01:52:56;19.50;32.80
59973;DHT22;55298;-36.624;-64.282;2022-09-16T01:55:39;19.50;32.90
59973;DHT22;55298;-36.624;-64.282;2022-09-16T01:58:20;19.50;33.10
59973;DHT22;55298;-36.624;-64.282;2022-09-16T02:00:55;19.40;33.20
59973;DHT22;55298;-36.624;-64.282;2022-09-16T02:03:32;19.30;33.30
59973;DHT22;55298;-36.624;-64.282;2022-09-16T02:06:04;19.30;33.50
59973;DHT22;55298;-36.624;-64.282;2022-09-16T02:08:44;19.20;33.60
59973;DHT22;55298;-36.624;-64.282;2022-09-16T02:11:16;19.20;33.70
59973;DHT22;55298;-36.624;-64.282;2022-09-16T02:13:57;19.20;33.80
59973;DHT22;55298;-36.624;-64.282;2022-09-16T02:16:42;19.20;33.90
59973;DHT22;55298;-36.624;-64.282;2022-09-16T02:19:21;19.10;34.00
59973;DHT22;55298;-36.624;-64.282;2022-09-16T02:21:52;19.10;34.00
59973;DHT22;55298;-36.624;-64.282;2022-09-16T02:24:22;19.10;34.10
59973;DHT22;55298;-36.624;-64.282;2022-09-16T02:26:56;19.00;34.10
59973;DHT22;55298;-36.624;-64.282;2022-09-16T02:29:36;19.00;34.30
59973;DHT22;55298;-36.624;-64.282;2022-09-16T02:32:07;19.00;34.30
59973;DHT22;55298;-36.624;-64.282;2022-09-16T02:34:43;18.90;34.40
59973;DHT22;55298;-36.624;-64.282;2022-09-16T02:37:46;18.90;34.50
59973;DHT22;55298;-36.624;-64.282;2022-09-16T02:40:14;18.90;34.40
59973;DHT22;55298;-36.624;-64.282;2022-09-16T02:42:43;18.90;34.40
59973;DHT22;55298;-36.624;-64.282;2022-09-16T02:45:11;18.90;34.40
59973;DHT22;55298;-36.624;-64.282;2022-09-16T02:48:03;18.90;34.50
59973;DHT22;55298;-36.624;-64.282;2022-09-16T02:50:48;18.90;34.50
59973;DHT22;55298;-36.624;-64.282;2022-09-16T02:56:39;18.90;34.60
59973;DHT22;55298;-36.624;-64.282;2022-09-16T02:58:58;18.90;34.60
59973;DHT22;55298;-36.624;-64.282;2022-09-16T03:01:33;18.80;34.70
59973;DHT22;55298;-36.624;-64.282;2022-09-16T03:04:03;18.80;34.80
59973;DHT22;55298;-36.624;-64.282;2022-09-16T03:06:32;18.80;34.90
59973;DHT22;55298;-36.624;-64.282;2022-09-16T03:09:03;18.80;35.00
59973;DHT22;55298;-36.624;-64.282;2022-09-16T03:14:43;18.70;35.30
59973;DHT22;55298;-36.624;-64.282;2022-09-16T03:17:39;18.70;35.40
59973;DHT22;55298;-36.624;-64.282;2022-09-16T03:23:24;18.60;35.60
59973;DHT22;55298;-36.624;-64.282;2022-09-16T03:31:52;18.50;35.80
59973;DHT22;55298;-36.624;-64.282;2022-09-16T03:34:29;18.50;36.00
59973;DHT22;55298;-36.624;-64.282;2022-09-16T03:37:04;18.50;36.10
59973;DHT22;55298;-36.624;-64.282;2022-09-16T03:39:34;18.50;36.20
59973;DHT22;55298;-36.624;-64.282;2022-09-16T03:42:03;18.40;36.20
59973;DHT22;55298;-36.624;-64.282;2022-09-16T03:44:35;18.40;36.40
59973;DHT22;55298;-36.624;-64.282;2022-09-16T03:47:04;18.30;36.60
59973;DHT22;55298;-36.624;-64.282;2022-09-16T03:49:34;18.30;36.60
59973;DHT22;55298;-36.624;-64.282;2022-09-16T03:52:04;18.30;36.60
59973;DHT22;55298;-36.624;-64.282;2022-09-16T03:54:33;18.30;36.80
59973;DHT22;55298;-36.624;-64.282;2022-09-16T03:57:01;18.20;36.90
59973;DHT22;55298;-36.624;-64.282;2022-09-16T03:59:30;18.10;37.10
59973;DHT22;55298;-36.624;-64.282;2022-09-16T04:01:57;18.20;37.20
59973;DHT22;55298;-36.624;-64.282;2022-09-16T04:04:26;18.10;37.30
59973;DHT22;55298;-36.624;-64.282;2022-09-16T04:06:54;18.00;37.50
59973;DHT22;55298;-36.624;-64.282;2022-09-16T04:09:23;18.00;37.10
59973;DHT22;55298;-36.624;-64.282;2022-09-16T04:11:50;18.00;37.70
59973;DHT22;55298;-36.624;-64.282;2022-09-16T04:14:19;17.90;37.50
59973;DHT22;55298;-36.624;-64.282;2022-09-16T04:16:47;17.90;38.00
59973;DHT22;55298;-36.624;-64.282;2022-09-16T04:19:17;17.90;38.00
59973;DHT22;55298;-36.624;-64.282;2022-09-16T04:21:46;17.90;38.20
59973;DHT22;55298;-36.624;-64.282;2022-09-16T04:24:15;17.80;38.40
59973;DHT22;55298;-36.624;-64.282;2022-09-16T04:26:43;17.80;38.60
59973;DHT22;55298;-36.624;-64.282;2022-09-16T04:29:11;17.70;38.70
59973;DHT22;55298;-36.624;-64.282;2022-09-16T04:31:39;17.70;39.00
59973;DHT22;55298;-36.624;-64.282;2022-09-16T04:34:07;17.60;39.10
59973;DHT22;55298;-36.624;-64.282;2022-09-16T04:36:37;17.60;39.30
59973;DHT22;55298;-36.624;-64.282;2022-09-16T04:39:06;17.60;39.50
59973;DHT22;55298;-36.624;-64.282;2022-09-16T04:41:33;17.50;39.50
59973;DHT22;55298;-36.624;-64.282;2022-09-16T04:44:02;17.50;39.70
59973;DHT22;55298;-36.624;-64.282;2022-09-16T04:46:31;17.50;39.90
59973;DHT22;55298;-36.624;-64.282;2022-09-16T04:48:59;17.40;40.10
59973;DHT22;55298;-36.624;-64.282;2022-09-16T04:51:29;17.40;40.30
59973;DHT22;55298;-36.624;-64.282;2022-09-16T04:53:59;17.30;40.50
59973;DHT22;55298;-36.624;-64.282;2022-09-16T04:56:29;17.30;40.60
59973;DHT22;55298;-36.624;-64.282;2022-09-16T04:59:08;17.30;40.80
59973;DHT22;55298;-36.624;-64.282;2022-09-16T05:01:38;17.20;40.90
59973;DHT22;55298;-36.624;-64.282;2022-09-16T05:04:08;17.20;41.10
59973;DHT22;55298;-36.624;-64.282;2022-09-16T05:06:38;17.10;41.30
59973;DHT22;55298;-36.624;-64.282;2022-09-16T05:09:08;17.10;41.40
59973;DHT22;55298;-36.624;-64.282;2022-09-16T05:11:37;17.10;41.60
59973;DHT22;55298;-36.624;-64.282;2022-09-16T05:14:12;17.00;41.80
59973;DHT22;55298;-36.624;-64.282;2022-09-16T05:16:41;17.00;42.00
59973;DHT22;55298;-36.624;-64.282;2022-09-16T05:19:12;16.90;42.10
59973;DHT22;55298;-36.624;-64.282;2022-09-16T05:21:42;16.90;42.20
59973;DHT22;55298;-36.624;-64.282;2022-09-16T05:24:11;16.80;42.40
59973;DHT22;55298;-36.624;-64.282;2022-09-16T05:26:41;16.80;42.50
59973;DHT22;55298;-36.624;-64.282;2022-09-16T05:29:13;16.80;42.60
59973;DHT22;55298;-36.624;-64.282;2022-09-16T05:31:42;16.80;42.80
59973;DHT22;55298;-36.624;-64.282;2022-09-16T05:34:16;16.70;42.90
59973;DHT22;55298;-36.624;-64.282;2022-09-16T05:36:44;16.70;43.10
59973;DHT22;55298;-36.624;-64.282;2022-09-16T05:39:15;16.60;43.30
59973;DHT22;55298;-36.624;-64.282;2022-09-16T05:41:46;16.60;43.20
59973;DHT22;55298;-36.624;-64.282;2022-09-16T05:44:14;16.60;43.40
59973;DHT22;55298;-36.624;-64.282;2022-09-16T05:46:42;16.60;43.60
59973;DHT22;55298;-36.624;-64.282;2022-09-16T05:49:10;16.50;43.70
59973;DHT22;55298;-36.624;-64.282;2022-09-16T05:51:39;16.50;43.80
59973;DHT22;55298;-36.624;-64.282;2022-09-16T05:54:08;16.50;44.00
59973;DHT22;55298;-36.624;-64.282;2022-09-16T05:56:36;16.40;44.00
59973;DHT22;55298;-36.624;-64.282;2022-09-16T05:59:04;16.40;44.10
59973;DHT22;55298;-36.624;-64.282;2022-09-16T06:01:34;16.40;44.20
59973;DHT22;55298;-36.624;-64.282;2022-09-16T06:04:05;16.40;44.40
59973;DHT22;55298;-36.624;-64.282;2022-09-16T06:06:37;16.40;44.30
59973;DHT22;55298;-36.624;-64.282;2022-09-16T06:09:11;16.40;44.40
59973;DHT22;55298;-36.624;-64.282;2022-09-16T06:11:44;16.30;44.40
59973;DHT22;55298;-36.624;-64.282;2022-09-16T06:14:14;16.30;44.50
59973;DHT22;55298;-36.624;-64.282;2022-09-16T06:16:42;16.30;44.60
59973;DHT22;55298;-36.624;-64.282;2022-09-16T06:19:14;16.20;44.70
59973;DHT22;55298;-36.624;-64.282;2022-09-16T06:21:43;16.20;44.90
59973;DHT22;55298;-36.624;-64.282;2022-09-16T06:24:14;16.10;44.90
59973;DHT22;55298;-36.624;-64.282;2022-09-16T06:26:44;16.10;45.10
59973;DHT22;55298;-36.624;-64.282;2022-09-16T06:29:13;16.10;45.20
59973;DHT22;55298;-36.624;-64.282;2022-09-16T06:31:42;16.10;45.20
59973;DHT22;55298;-36.624;-64.282;2022-09-16T06:34:14;16.00;45.30
59973;DHT22;55298;-36.624;-64.282;2022-09-16T06:36:44;16.00;45.50
59973;DHT22;55298;-36.624;-64.282;2022-09-16T06:39:13;15.90;45.50
59973;DHT22;55298;-36.624;-64.282;2022-09-16T06:41:43;15.90;45.60
59973;DHT22;55298;-36.624;-64.282;2022-09-16T06:44:11;15.90;45.80
59973;DHT22;55298;-36.624;-64.282;2022-09-16T06:46:40;15.90;45.90
59973;DHT22;55298;-36.624;-64.282;2022-09-16T06:49:09;15.80;46.00
59973;DHT22;55298;-36.624;-64.282;2022-09-16T06:51:38;15.80;46.20
59973;DHT22;55298;-36.624;-64.282;2022-09-16T06:54:08;15.70;46.30
59973;DHT22;55298;-36.624;-64.282;2022-09-16T06:56:36;15.70;46.40
59973;DHT22;55298;-36.624;-64.282;2022-09-16T06:59:07;15.70;46.60
59973;DHT22;55298;-36.624;-64.282;2022-09-16T07:01:36;15.70;46.70
59973;DHT22;55298;-36.624;-64.282;2022-09-16T07:04:07;15.60;46.80
59973;DHT22;55298;-36.624;-64.282;2022-09-16T07:06:39;15.50;47.00
59973;DHT22;55298;-36.624;-64.282;2022-09-16T07:09:06;15.50;47.10
59973;DHT22;55298;-36.624;-64.282;2022-09-16T07:11:37;15.50;47.20
59973;DHT22;55298;-36.624;-64.282;2022-09-16T07:14:07;15.40;47.30
59973;DHT22;55298;-36.624;-64.282;2022-09-16T07:16:35;15.40;47.50
59973;DHT22;55298;-36.624;-64.282;2022-09-16T07:19:04;15.30;47.60
59973;DHT22;55298;-36.624;-64.282;2022-09-16T07:21:32;15.30;47.80
59973;DHT22;55298;-36.624;-64.282;2022-09-16T07:24:02;15.30;47.90
59973;DHT22;55298;-36.624;-64.282;2022-09-16T07:26:32;15.20;48.10
59973;DHT22;55298;-36.624;-64.282;2022-09-16T07:29:04;15.20;48.20
59973;DHT22;55298;-36.624;-64.282;2022-09-16T07:31:36;15.20;48.30
59973;DHT22;55298;-36.624;-64.282;2022-09-16T07:34:05;15.10;48.40
59973;DHT22;55298;-36.624;-64.282;2022-09-16T07:36:36;15.10;48.50
59973;DHT22;55298;-36.624;-64.282;2022-09-16T07:39:04;15.10;48.70
59973;DHT22;55298;-36.624;-64.282;2022-09-16T07:41:35;15.00;48.80
59973;DHT22;55298;-36.624;-64.282;2022-09-16T07:44:06;15.00;49.00
59973;DHT22;55298;-36.624;-64.282;2022-09-16T07:46:34;15.00;49.20
59973;DHT22;55298;-36.624;-64.282;2022-09-16T07:49:06;14.90;49.20
59973;DHT22;55298;-36.624;-64.282;2022-09-16T07:51:35;15.00;49.40
59973;DHT22;55298;-36.624;-64.282;2022-09-16T07:54:06;14.90;49.40
59973;DHT22;55298;-36.624;-64.282;2022-09-16T07:56:37;14.90;49.60
59973;DHT22;55298;-36.624;-64.282;2022-09-16T07:59:07;14.90;49.80
59973;DHT22;55298;-36.624;-64.282;2022-09-16T08:01:39;14.80;50.00
59973;DHT22;55298;-36.624;-64.282;2022-09-16T08:04:08;14.80;50.10
59973;DHT22;55298;-36.624;-64.282;2022-09-16T08:06:38;14.80;50.30
59973;DHT22;55298;-36.624;-64.282;2022-09-16T08:09:07;14.80;50.50
59973;DHT22;55298;-36.624;-64.282;2022-09-16T08:11:34;14.70;50.60
59973;DHT22;55298;-36.624;-64.282;2022-09-16T08:14:03;14.70;50.70
59973;DHT22;55298;-36.624;-64.282;2022-09-16T08:16:30;14.70;50.80
59973;DHT22;55298;-36.624;-64.282;2022-09-16T08:18:59;14.70;50.70
59973;DHT22;55298;-36.624;-64.282;2022-09-16T08:21:28;14.70;50.80
59973;DHT22;55298;-36.624;-64.282;2022-09-16T08:23:59;14.70;51.00
59973;DHT22;55298;-36.624;-64.282;2022-09-16T08:26:28;14.80;51.10
59973;DHT22;55298;-36.624;-64.282;2022-09-16T08:28:57;14.70;51.00
59973;DHT22;55298;-36.624;-64.282;2022-09-16T08:31:25;14.70;51.00
59973;DHT22;55298;-36.624;-64.282;2022-09-16T08:33:53;14.70;51.10
59973;DHT22;55298;-36.624;-64.282;2022-09-16T08:36:25;14.70;51.00
59973;DHT22;55298;-36.624;-64.282;2022-09-16T08:38:55;14.70;51.10
59973;DHT22;55298;-36.624;-64.282;2022-09-16T08:41:38;14.70;51.10
59973;DHT22;55298;-36.624;-64.282;2022-09-16T08:44:31;14.70;51.20
59973;DHT22;55298;-36.624;-64.282;2022-09-16T08:47:06;14.70;51.40
59973;DHT22;55298;-36.624;-64.282;2022-09-16T08:49:41;14.70;51.40
59973;DHT22;55298;-36.624;-64.282;2022-09-16T08:52:14;14.60;51.40
59973;DHT22;55298;-36.624;-64.282;2022-09-16T08:54:48;14.50;51.50
59973;DHT22;55298;-36.624;-64.282;2022-09-16T08:57:21;14.60;51.70
59973;DHT22;55298;-36.624;-64.282;2022-09-16T08:59:55;14.60;51.70
59973;DHT22;55298;-36.624;-64.282;2022-09-16T09:05:26;14.60;51.90
59973;DHT22;55298;-36.624;-64.282;2022-09-16T09:08:11;14.60;52.00
59973;DHT22;55298;-36.624;-64.282;2022-09-16T09:10:51;14.60;52.10
59973;DHT22;55298;-36.624;-64.282;2022-09-16T09:13:33;14.60;52.10
59973;DHT22;55298;-36.624;-64.282;2022-09-16T09:16:21;14.50;52.30
59973;DHT22;55298;-36.624;-64.282;2022-09-16T09:19:12;14.50;52.40
59973;DHT22;55298;-36.624;-64.282;2022-09-16T09:22:07;14.40;52.60
59973;DHT22;55298;-36.624;-64.282;2022-09-16T09:24:52;14.40;52.70
59973;DHT22;55298;-36.624;-64.282;2022-09-16T09:30:19;14.40;53.00
59973;DHT22;55298;-36.624;-64.282;2022-09-16T09:32:52;14.40;53.00
59973;DHT22;55298;-36.624;-64.282;2022-09-16T09:40:52;14.30;53.30
59973;DHT22;55298;-36.624;-64.282;2022-09-16T09:46:29;14.20;53.70
59973;DHT22;55298;-36.624;-64.282;2022-09-16T09:49:15;14.20;53.90
59973;DHT22;55298;-36.624;-64.282;2022-09-16T09:51:52;14.10;54.10
59973;DHT22;55298;-36.624;-64.282;2022-09-16T09:54:28;14.10;53.80
59973;DHT22;55298;-36.624;-64.282;2022-09-16T09:57:02;14.10;54.30
59973;DHT22;55298;-36.624;-64.282;2022-09-16T09:59:39;14.10;54.30
59973;DHT22;55298;-36.624;-64.282;2022-09-16T10:02:15;14.10;54.40
59973;DHT22;55298;-36.624;-64.282;2022-09-16T10:04:44;14.10;54.60
59973;DHT22;55298;-36.624;-64.282;2022-09-16T10:07:15;14.10;54.90
59973;DHT22;55298;-36.624;-64.282;2022-09-16T10:10:00;14.10;54.90
59973;DHT22;55298;-36.624;-64.282;2022-09-16T10:12:33;14.00;55.00
59973;DHT22;55298;-36.624;-64.282;2022-09-16T10:15:03;14.00;55.10
59973;DHT22;55298;-36.624;-64.282;2022-09-16T10:17:34;14.00;55.30
59973;DHT22;55298;-36.624;-64.282;2022-09-16T10:20:04;14.00;55.30
59973;DHT22;55298;-36.624;-64.282;2022-09-16T10:22:51;14.00;55.50
59973;DHT22;55298;-36.624;-64.282;2022-09-16T10:25:24;14.00;55.60
59973;DHT22;55298;-36.624;-64.282;2022-09-16T10:27:58;14.00;55.80
59973;DHT22;55298;-36.624;-64.282;2022-09-16T10:30:31;13.90;56.00
59973;DHT22;55298;-36.624;-64.282;2022-09-16T10:33:21;13.90;56.20
59973;DHT22;55298;-36.624;-64.282;2022-09-16T10:36:01;13.90;56.30
59973;DHT22;55298;-36.624;-64.282;2022-09-16T10:38:40;13.80;56.20
59973;DHT22;55298;-36.624;-64.282;2022-09-16T10:41:29;14.00;56.40
59973;DHT22;55298;-36.624;-64.282;2022-09-16T10:44:12;13.90;56.50
59973;DHT22;55298;-36.624;-64.282;2022-09-16T10:47:03;13.90;56.60
59973;DHT22;55298;-36.624;-64.282;2022-09-16T10:49:44;13.90;56.70
59973;DHT22;55298;-36.624;-64.282;2022-09-16T10:52:20;14.00;56.70
59973;DHT22;55298;-36.624;-64.282;2022-09-16T10:54:55;14.00;56.90
59973;DHT22;55298;-36.624;-64.282;2022-09-16T10:57:32;14.10;56.90
59973;DHT22;55298;-36.624;-64.282;2022-09-16T11:00:18;14.10;56.80
59973;DHT22;55298;-36.624;-64.282;2022-09-16T11:06:01;14.10;56.90
59973;DHT22;55298;-36.624;-64.282;2022-09-16T11:08:55;14.10;56.50
59973;DHT22;55298;-36.624;-64.282;2022-09-16T11:11:49;14.10;57.00
59973;DHT22;55298;-36.624;-64.282;2022-09-16T11:14:43;14.10;57.00
59973;DHT22;55298;-36.624;-64.282;2022-09-16T11:34:20;14.20;57.80
59973;DHT22;55298;-36.624;-64.282;2022-09-16T11:37:17;14.20;57.90
59973;DHT22;55298;-36.624;-64.282;2022-09-16T11:43:00;14.20;58.00
59973;DHT22;55298;-36.624;-64.282;2022-09-16T11:48:41;14.30;58.20
59973;DHT22;55298;-36.624;-64.282;2022-09-16T11:51:36;14.30;58.00
59973;DHT22;55298;-36.624;-64.282;2022-09-16T11:54:31;14.30;58.40
59973;DHT22;55298;-36.624;-64.282;2022-09-16T11:57:19;14.30;58.60
59973;DHT22;55298;-36.624;-64.282;2022-09-16T12:00:01;14.40;58.60
59973;DHT22;55298;-36.624;-64.282;2022-09-16T12:05:56;14.70;58.50
59973;DHT22;55298;-36.624;-64.282;2022-09-16T12:09:04;14.60;57.80
59973;DHT22;55298;-36.624;-64.282;2022-09-16T12:11:49;14.60;58.30
59973;DHT22;55298;-36.624;-64.282;2022-09-16T12:14:35;13.60;57.90
59973;DHT22;55298;-36.624;-64.282;2022-09-16T12:17:20;14.60;58.10
59973;DHT22;55298;-36.624;-64.282;2022-09-16T12:19:58;15.80;58.50
59973;DHT22;55298;-36.624;-64.282;2022-09-16T12:22:34;14.80;58.30
59973;DHT22;55298;-36.624;-64.282;2022-09-16T12:25:14;14.80;58.10
59973;DHT22;55298;-36.624;-64.282;2022-09-16T12:30:34;15.00;58.00
59973;DHT22;55298;-36.624;-64.282;2022-09-16T12:33:15;15.00;57.90
59973;DHT22;55298;-36.624;-64.282;2022-09-16T12:38:35;15.10;57.70
59973;DHT22;55298;-36.624;-64.282;2022-09-16T12:41:24;15.20;57.50
59973;DHT22;55298;-36.624;-64.282;2022-09-16T13:01:46;16.00;55.60
59973;DHT22;55298;-36.624;-64.282;2022-09-16T13:04:20;16.20;55.30
59973;DHT22;55298;-36.624;-64.282;2022-09-16T13:06:54;16.20;54.80
59973;DHT22;55298;-36.624;-64.282;2022-09-16T13:09:30;16.20;54.90
59973;DHT22;55298;-36.624;-64.282;2022-09-16T13:12:06;16.30;54.70
59973;DHT22;55298;-36.624;-64.282;2022-09-16T13:14:50;16.30;54.70
59973;DHT22;55298;-36.624;-64.282;2022-09-16T13:17:36;16.40;54.70
59973;DHT22;55298;-36.624;-64.282;2022-09-16T13:20:29;16.40;53.90
59973;DHT22;55298;-36.624;-64.282;2022-09-16T13:23:17;16.50;54.20
59973;DHT22;55298;-36.624;-64.282;2022-09-16T13:25:58;16.70;54.30
59973;DHT22;55298;-36.624;-64.282;2022-09-16T13:28:39;16.70;54.00
59973;DHT22;55298;-36.624;-64.282;2022-09-16T13:31:18;17.00;53.70
59973;DHT22;55298;-36.624;-64.282;2022-09-16T13:34:14;16.80;53.50
59973;DHT22;55298;-36.624;-64.282;2022-09-16T13:36:45;16.90;53.40
59973;DHT22;55298;-36.624;-64.282;2022-09-16T13:39:29;17.00;53.40
59973;DHT22;55298;-36.624;-64.282;2022-09-16T13:42:17;17.00;53.10
59973;DHT22;55298;-36.624;-64.282;2022-09-16T13:44:46;17.10;52.80
59973;DHT22;55298;-36.624;-64.282;2022-09-16T13:47:29;17.30;52.50
59973;DHT22;55298;-36.624;-64.282;2022-09-16T13:50:18;17.50;51.80
59973;DHT22;55298;-36.624;-64.282;2022-09-16T13:52:50;17.60;51.50
59973;DHT22;55298;-36.624;-64.282;2022-09-16T13:55:23;17.70;51.20
59973;DHT22;55298;-36.624;-64.282;2022-09-16T13:58:17;17.80;51.00
59973;DHT22;55298;-36.624;-64.282;2022-09-16T14:01:12;17.90;50.60
59973;DHT22;55298;-36.624;-64.282;2022-09-16T14:06:43;18.20;49.80
59973;DHT22;55298;-36.624;-64.282;2022-09-16T14:12:30;18.60;49.10
59973;DHT22;55298;-36.624;-64.282;2022-09-16T14:15:03;18.70;48.80
59973;DHT22;55298;-36.624;-64.282;2022-09-16T14:17:45;18.70;48.50
59973;DHT22;55298;-36.624;-64.282;2022-09-16T14:20:18;18.80;48.50
59973;DHT22;55298;-36.624;-64.282;2022-09-16T14:22:47;19.00;48.40
59973;DHT22;55298;-36.624;-64.282;2022-09-16T14:25:26;18.90;47.60
59973;DHT22;55298;-36.624;-64.282;2022-09-16T14:28:08;19.00;47.80
59973;DHT22;55298;-36.624;-64.282;2022-09-16T14:30:36;19.10;47.70
59973;DHT22;55298;-36.624;-64.282;2022-09-16T14:33:06;19.20;47.60
59973;DHT22;55298;-36.624;-64.282;2022-09-16T14:35:34;19.30;47.30
59973;DHT22;55298;-36.624;-64.282;2022-09-16T14:38:04;19.40;47.10
59973;DHT22;55298;-36.624;-64.282;2022-09-16T14:40:33;19.40;46.90
59973;DHT22;55298;-36.624;-64.282;2022-09-16T14:43:11;19.50;46.90
59973;DHT22;55298;-36.624;-64.282;2022-09-16T14:45:47;19.60;46.40
59973;DHT22;55298;-36.624;-64.282;2022-09-16T14:48:19;19.80;46.40
59973;DHT22;55298;-36.624;-64.282;2022-09-16T14:50:50;19.80;45.80
59973;DHT22;55298;-36.624;-64.282;2022-09-16T14:53:31;19.90;45.70
59973;DHT22;55298;-36.624;-64.282;2022-09-16T14:56:03;20.00;45.50
59973;DHT22;55298;-36.624;-64.282;2022-09-16T14:58:37;20.20;45.00
59973;DHT22;55298;-36.624;-64.282;2022-09-16T15:01:10;20.40;44.10
59973;DHT22;55298;-36.624;-64.282;2022-09-16T15:03:50;20.50;43.10
59973;DHT22;55298;-36.624;-64.282;2022-09-16T15:06:24;20.80;42.80
59973;DHT22;55298;-36.624;-64.282;2022-09-16T15:09:01;20.90;42.30
59973;DHT22;55298;-36.624;-64.282;2022-09-16T15:11:35;21.20;40.90
59973;DHT22;55298;-36.624;-64.282;2022-09-16T15:14:11;21.20;41.30
59973;DHT22;55298;-36.624;-64.282;2022-09-16T15:16:45;21.30;41.30
59973;DHT22;55298;-36.624;-64.282;2022-09-16T15:19:22;21.50;41.30
59973;DHT22;55298;-36.624;-64.282;2022-09-16T15:21:52;21.60;40.30
59973;DHT22;55298;-36.624;-64.282;2022-09-16T15:24:23;21.60;40.10
59973;DHT22;55298;-36.624;-64.282;2022-09-16T15:26:57;21.70;40.40
59973;DHT22;55298;-36.624;-64.282;2022-09-16T15:29:30;21.80;39.00
59973;DHT22;55298;-36.624;-64.282;2022-09-16T15:32:17;21.70;38.90
59973;DHT22;55298;-36.624;-64.282;2022-09-16T15:35:07;21.80;38.90
59973;DHT22;55298;-36.624;-64.282;2022-09-16T15:37:39;21.90;39.00
59973;DHT22;55298;-36.624;-64.282;2022-09-16T15:43:46;21.90;38.80
59973;DHT22;55298;-36.624;-64.282;2022-09-16T15:46:21;22.00;38.50
59973;DHT22;55298;-36.624;-64.282;2022-09-16T15:49:02;22.00;38.60
59973;DHT22;55298;-36.624;-64.282;2022-09-16T15:51:35;22.00;38.50
59973;DHT22;55298;-36.624;-64.282;2022-09-16T15:54:30;22.00;39.00
59973;DHT22;55298;-36.624;-64.282;2022-09-16T15:57:09;22.20;38.50
59973;DHT22;55298;-36.624;-64.282;2022-09-16T16:00:00;22.40;38.30
59973;DHT22;55298;-36.624;-64.282;2022-09-16T16:02:49;22.60;38.00
59973;DHT22;55298;-36.624;-64.282;2022-09-16T16:05:26;22.70;37.30
59973;DHT22;55298;-36.624;-64.282;2022-09-16T16:08:01;22.80;36.00
59973;DHT22;55298;-36.624;-64.282;2022-09-16T16:10:32;23.10;35.40
59973;DHT22;55298;-36.624;-64.282;2022-09-16T16:13:06;23.30;33.90
59973;DHT22;55298;-36.624;-64.282;2022-09-16T16:15:42;23.50;33.70
59973;DHT22;55298;-36.624;-64.282;2022-09-16T16:18:16;23.60;33.90
59973;DHT22;55298;-36.624;-64.282;2022-09-16T16:20:52;23.60;34.50
59973;DHT22;55298;-36.624;-64.282;2022-09-16T16:23:22;23.60;34.40
59973;DHT22;55298;-36.624;-64.282;2022-09-16T16:25:53;23.70;33.90
59973;DHT22;55298;-36.624;-64.282;2022-09-16T16:28:20;23.80;33.80
59973;DHT22;55298;-36.624;-64.282;2022-09-16T16:30:49;23.80;33.70
59973;DHT22;55298;-36.624;-64.282;2022-09-16T16:33:17;23.90;33.30
59973;DHT22;55298;-36.624;-64.282;2022-09-16T16:35:46;24.00;33.40
59973;DHT22;55298;-36.624;-64.282;2022-09-16T16:38:19;24.10;33.60
59973;DHT22;55298;-36.624;-64.282;2022-09-16T16:40:50;24.20;33.00
59973;DHT22;55298;-36.624;-64.282;2022-09-16T16:43:20;24.10;32.70
59973;DHT22;55298;-36.624;-64.282;2022-09-16T16:45:56;24.00;32.60
59973;DHT22;55298;-36.624;-64.282;2022-09-16T16:48:28;24.10;33.00
59973;DHT22;55298;-36.624;-64.282;2022-09-16T16:51:01;24.20;33.20
59973;DHT22;55298;-36.624;-64.282;2022-09-16T16:53:30;24.30;32.80
59973;DHT22;55298;-36.624;-64.282;2022-09-16T16:56:04;24.20;32.80
59973;DHT22;55298;-36.624;-64.282;2022-09-16T16:58:33;24.30;33.10
59973;DHT22;55298;-36.624;-64.282;2022-09-16T17:01:21;24.40;31.90
59973;DHT22;55298;-36.624;-64.282;2022-09-16T17:03:53;24.50;30.70
59973;DHT22;55298;-36.624;-64.282;2022-09-16T17:06:33;24.40;30.40
59973;DHT22;55298;-36.624;-64.282;2022-09-16T17:09:07;24.50;30.70
59973;DHT22;55298;-36.624;-64.282;2022-09-16T17:11:55;24.50;31.20
59973;DHT22;55298;-36.624;-64.282;2022-09-16T17:14:34;24.80;31.20